createdAt,value
2018-12-06T00:01:40.407Z,3.60
2018-12-06T00:04:51.529Z,3.70
2018-12-06T00:08:16.567Z,3.60
2018-12-06T00:11:28.022Z,3.60
2018-12-06T00:14:39.043Z,3.70
2018-12-06T00:17:50.247Z,3.70
2018-12-06T00:21:01.393Z,3.70
2018-12-06T00:24:12.601Z,3.70
2018-12-06T00:27:23.841Z,3.70
2018-12-06T00:30:43.354Z,3.80
2018-12-06T00:33:54.998Z,3.80
2018-12-06T00:37:06.470Z,3.90
2018-12-06T00:40:18.800Z,3.90
2018-12-06T00:43:30.704Z,3.90
2018-12-06T00:46:41.832Z,3.90
2018-12-06T00:49:53.583Z,3.90
2018-12-06T00:53:04.914Z,3.90
2018-12-06T00:56:16.213Z,4.00
2018-12-06T00:59:27.114Z,4.00
2018-12-06T01:02:38.813Z,4.00
2018-12-06T01:05:50.600Z,3.90
2018-12-06T01:09:04.384Z,3.90
2018-12-06T01:12:15.652Z,3.90
2018-12-06T01:15:27.450Z,3.90
2018-12-06T01:18:39.372Z,3.80
2018-12-06T01:21:51.180Z,3.70
2018-12-06T01:25:02.488Z,3.70
2018-12-06T01:28:13.637Z,3.80
2018-12-06T01:31:25.663Z,3.80
2018-12-06T01:34:37.351Z,3.80
2018-12-06T01:37:48.641Z,3.80
2018-12-06T01:41:01.073Z,3.80
2018-12-06T01:44:12.381Z,3.80
2018-12-06T01:47:23.365Z,3.70
2018-12-06T01:50:35.449Z,3.80
2018-12-06T01:53:47.289Z,3.70
2018-12-06T01:56:59.202Z,3.70
2018-12-06T02:00:11.992Z,3.60
2018-12-06T02:03:23.977Z,3.60
2018-12-06T02:06:35.146Z,3.60
2018-12-06T02:09:47.923Z,3.50
2018-12-06T02:13:00.651Z,3.50
2018-12-06T02:16:12.079Z,3.50
2018-12-06T02:19:24.555Z,3.50
2018-12-06T02:22:36.841Z,3.40
2018-12-06T02:25:48.050Z,3.40
2018-12-06T02:29:00.611Z,3.40
2018-12-06T02:32:12.018Z,3.40
2018-12-06T02:35:23.980Z,3.40
2018-12-06T02:38:35.752Z,3.40
2018-12-06T02:41:47.362Z,3.50
2018-12-06T02:44:58.821Z,3.50
2018-12-06T02:48:10.027Z,3.50
2018-12-06T02:51:21.071Z,3.50
2018-12-06T02:54:32.685Z,3.60
2018-12-06T02:57:44.968Z,3.50
2018-12-06T03:00:57.985Z,3.50
2018-12-06T03:04:10.402Z,3.50
2018-12-06T03:07:22.238Z,3.50
2018-12-06T03:10:33.580Z,3.50
2018-12-06T03:13:44.648Z,3.50
2018-12-06T03:16:56.187Z,3.50
2018-12-06T03:20:10.060Z,3.50
2018-12-06T03:23:21.045Z,3.50
2018-12-06T03:26:32.636Z,3.50
2018-12-06T03:29:44.510Z,3.50
2018-12-06T03:32:55.380Z,3.50
2018-12-06T03:36:06.928Z,3.50
2018-12-06T03:39:18.164Z,3.50
2018-12-06T03:42:29.666Z,3.50
2018-12-06T03:45:40.697Z,3.50
2018-12-06T03:48:51.776Z,3.60
2018-12-06T03:52:03.929Z,3.60
2018-12-06T03:55:15.500Z,3.60
2018-12-06T03:58:27.033Z,3.70
2018-12-06T04:01:38.833Z,3.70
2018-12-06T04:04:49.860Z,3.80
2018-12-06T04:08:02.708Z,3.90
2018-12-06T04:11:14.525Z,4.00
2018-12-06T04:14:25.814Z,4.00
2018-12-06T04:17:36.808Z,4.10
2018-12-06T04:20:48.148Z,4.10
2018-12-06T04:23:59.662Z,4.10
2018-12-06T04:27:10.993Z,4.10
2018-12-06T04:30:23.327Z,4.10
2018-12-06T04:33:35.346Z,4.10
2018-12-06T04:36:46.221Z,4.10
2018-12-06T04:39:58.037Z,4.20
2018-12-06T04:43:09.820Z,4.10
2018-12-06T04:46:21.147Z,4.20
2018-12-06T04:49:32.438Z,4.20
2018-12-06T04:52:43.264Z,4.20
2018-12-06T04:55:54.662Z,4.20
2018-12-06T04:59:05.753Z,4.10
2018-12-06T05:02:17.366Z,4.10
2018-12-06T05:05:28.624Z,4.00
2018-12-06T05:08:40.677Z,4.00
2018-12-06T05:11:52.373Z,3.90
2018-12-06T05:15:05.241Z,4.00
2018-12-06T05:18:16.232Z,4.00
2018-12-06T05:21:27.596Z,4.00
2018-12-06T05:24:38.684Z,4.00
2018-12-06T05:27:50.133Z,4.10
2018-12-06T05:31:01.926Z,4.20
2018-12-06T05:34:14.136Z,4.20
2018-12-06T05:37:25.687Z,4.30
2018-12-06T05:40:37.251Z,4.30
2018-12-06T05:43:49.372Z,4.30
2018-12-06T05:47:00.941Z,4.40
2018-12-06T05:50:13.055Z,4.50
2018-12-06T05:53:24.793Z,4.50
2018-12-06T05:56:36.257Z,4.50
2018-12-06T05:59:47.165Z,4.60
2018-12-06T06:02:59.084Z,4.60
2018-12-06T06:06:10.744Z,4.60
2018-12-06T06:09:22.728Z,4.70
2018-12-06T06:12:35.114Z,4.70
2018-12-06T06:15:46.821Z,4.70
2018-12-06T06:18:58.123Z,4.70
2018-12-06T06:22:09.203Z,4.70
2018-12-06T06:25:20.433Z,4.70
2018-12-06T06:28:31.429Z,4.70
2018-12-06T06:31:42.985Z,4.70
2018-12-06T06:34:53.987Z,4.80
2018-12-06T06:38:06.126Z,4.70
2018-12-06T06:41:17.731Z,4.70
2018-12-06T06:44:29.592Z,4.70
2018-12-06T06:47:41.338Z,4.70
2018-12-06T06:50:52.672Z,4.70
2018-12-06T06:54:04.570Z,4.70
2018-12-06T06:57:16.530Z,4.70
2018-12-06T07:00:28.437Z,4.70
2018-12-06T07:03:39.393Z,4.70
2018-12-06T07:06:50.605Z,4.70
2018-12-06T07:10:02.421Z,4.70
2018-12-06T07:13:13.850Z,4.80
2018-12-06T07:16:26.050Z,4.80
2018-12-06T07:19:38.013Z,4.90
2018-12-06T07:22:49.292Z,5.00
2018-12-06T07:26:01.293Z,5.00
2018-12-06T07:29:12.132Z,5.10
2018-12-06T07:32:23.366Z,5.20
2018-12-06T07:35:34.428Z,5.20
2018-12-06T07:38:45.608Z,5.30
2018-12-06T07:41:57.498Z,5.30
2018-12-06T07:45:10.229Z,5.30
2018-12-06T07:48:21.564Z,5.30
2018-12-06T07:51:32.977Z,5.30
2018-12-06T07:54:44.699Z,5.40
2018-12-06T07:57:57.435Z,5.40
2018-12-06T08:01:08.926Z,5.40
2018-12-06T08:04:20.311Z,5.40
2018-12-06T08:07:32.340Z,5.40
2018-12-06T08:10:43.525Z,5.50
2018-12-06T08:13:55.658Z,5.50
2018-12-06T08:17:07.064Z,5.50
2018-12-06T08:20:18.326Z,5.60
2018-12-06T08:23:29.598Z,5.60
2018-12-06T08:26:41.013Z,5.70
2018-12-06T08:29:52.038Z,5.70
2018-12-06T08:33:03.789Z,5.70
2018-12-06T08:36:16.016Z,5.70
2018-12-06T08:39:28.220Z,5.80
2018-12-06T08:42:45.600Z,5.80
2018-12-06T08:45:55.581Z,5.80
2018-12-06T08:52:32.133Z,6.00
2018-12-06T08:55:45.539Z,6.00
2018-12-06T08:58:57.595Z,6.10
2018-12-06T09:02:09.252Z,6.20
2018-12-06T09:05:20.192Z,6.20
2018-12-06T09:08:32.666Z,6.30
2018-12-06T09:11:44.325Z,6.30
2018-12-06T09:14:57.815Z,6.40
2018-12-06T09:18:09.339Z,6.50
2018-12-06T09:21:21.304Z,6.60
2018-12-06T09:24:34.210Z,6.60
2018-12-06T09:31:02.254Z,6.80
2018-12-06T09:34:14.281Z,6.90
2018-12-06T09:37:26.270Z,6.90
2018-12-06T09:40:37.600Z,7.00
2018-12-06T09:43:49.150Z,7.00
2018-12-06T09:47:00.725Z,7.00
2018-12-06T09:50:12.306Z,7.00
2018-12-06T09:53:24.582Z,7.00
2018-12-06T09:56:36.219Z,7.00
2018-12-06T09:59:48.006Z,7.00
2018-12-06T10:03:00.006Z,7.00
2018-12-06T10:06:11.814Z,7.00
2018-12-06T10:09:22.797Z,6.90
2018-12-06T10:12:34.282Z,7.00
2018-12-06T10:15:46.697Z,7.10
2018-12-06T10:18:59.080Z,7.10
2018-12-06T10:25:53.461Z,7.20
2018-12-06T10:29:05.028Z,7.30
2018-12-06T10:32:16.660Z,7.20
2018-12-06T10:35:27.732Z,7.40
2018-12-06T10:38:38.738Z,7.40
2018-12-06T10:45:32.801Z,7.50
2018-12-06T10:48:44.119Z,7.50
2018-12-06T10:51:55.293Z,7.60
2018-12-06T10:55:07.507Z,7.60
2018-12-06T10:58:19.287Z,7.70
2018-12-06T11:01:35.664Z,7.70
2018-12-06T11:04:48.547Z,7.70
2018-12-06T11:11:43.235Z,7.80
2018-12-06T11:14:55.110Z,7.80
2018-12-06T11:18:07.641Z,7.90
2018-12-06T11:21:19.370Z,7.90
2018-12-06T11:24:32.074Z,7.90
2018-12-06T11:27:44.637Z,8.00
2018-12-06T11:30:57.521Z,7.90
2018-12-06T11:34:08.956Z,8.00
2018-12-06T11:37:22.298Z,8.10
2018-12-06T11:40:33.681Z,8.10
2018-12-06T11:43:44.718Z,8.10
2018-12-06T11:46:58.181Z,8.10
2018-12-06T11:50:12.790Z,8.10
2018-12-06T11:53:24.188Z,8.20
2018-12-06T12:04:02.574Z,8.20
2018-12-06T12:07:14.203Z,8.20
2018-12-06T12:10:25.665Z,8.30
2018-12-06T12:13:37.085Z,8.30
2018-12-06T12:16:52.555Z,8.10
2018-12-06T12:20:05.898Z,8.10
2018-12-06T12:23:18.154Z,8.10
2018-12-06T12:26:30.997Z,7.90
2018-12-06T12:29:42.146Z,8.00
2018-12-06T12:32:53.401Z,7.90
2018-12-06T12:36:05.532Z,7.90
2018-12-06T12:39:17.377Z,7.90
2018-12-06T12:42:28.834Z,7.90
2018-12-06T12:45:39.635Z,7.80
2018-12-06T12:48:50.881Z,7.80
2018-12-06T12:52:02.068Z,7.80
2018-12-06T12:55:13.547Z,7.80
2018-12-06T12:58:25.341Z,7.90
2018-12-06T13:01:36.594Z,7.90
2018-12-06T13:04:48.240Z,7.90
2018-12-06T13:08:00.946Z,7.90
2018-12-06T13:11:12.501Z,7.90
2018-12-06T13:14:26.089Z,7.90
2018-12-06T13:17:37.852Z,7.90
2018-12-06T13:20:49.780Z,7.90
2018-12-06T13:24:00.830Z,7.90
2018-12-06T13:27:12.809Z,7.90
2018-12-06T13:30:25.335Z,7.80
2018-12-06T13:33:36.977Z,7.80
2018-12-06T13:36:48.050Z,7.80
2018-12-06T13:40:05.469Z,7.80
2018-12-06T13:43:17.297Z,7.70
2018-12-06T13:46:29.056Z,7.70
2018-12-06T13:49:41.844Z,7.70
2018-12-06T13:52:54.049Z,7.70
2018-12-06T13:56:05.933Z,7.70
2018-12-06T13:59:17.450Z,7.70
2018-12-06T14:02:28.578Z,7.70
2018-12-06T14:05:40.256Z,7.70
2018-12-06T14:08:51.913Z,7.70
2018-12-06T14:12:03.073Z,7.60
2018-12-06T14:15:15.899Z,7.70
2018-12-06T14:18:27.051Z,7.60
2018-12-06T14:21:38.521Z,7.60
2018-12-06T14:24:50.411Z,7.60
2018-12-06T14:28:01.468Z,7.50
2018-12-06T14:31:12.537Z,7.50
2018-12-06T14:34:23.974Z,7.50
2018-12-06T14:37:34.901Z,7.50
2018-12-06T14:40:46.751Z,7.50
2018-12-06T14:43:59.291Z,7.50
2018-12-06T14:47:10.773Z,7.50
2018-12-06T14:50:22.619Z,7.40
2018-12-06T14:53:33.399Z,7.50
2018-12-06T14:56:45.180Z,7.40
2018-12-06T14:59:56.338Z,7.40
2018-12-06T15:03:07.353Z,7.40
2018-12-06T15:06:18.853Z,7.40
2018-12-06T15:09:30.804Z,7.40
2018-12-06T15:12:41.675Z,7.40
2018-12-06T15:15:52.918Z,7.30
2018-12-06T15:19:04.297Z,7.40
2018-12-06T15:22:15.439Z,7.40
2018-12-06T15:25:26.731Z,7.40
2018-12-06T15:28:38.477Z,7.40
2018-12-06T15:31:49.597Z,7.30
2018-12-06T15:35:00.894Z,7.30
2018-12-06T15:38:12.390Z,7.30
2018-12-06T15:41:23.562Z,7.30
2018-12-06T15:44:35.048Z,7.30
2018-12-06T15:47:47.561Z,7.30
2018-12-06T15:54:33.592Z,7.40
2018-12-06T15:57:44.794Z,7.40
2018-12-06T16:00:56.172Z,7.40
2018-12-06T16:04:08.294Z,7.30
2018-12-06T16:07:20.169Z,7.30
2018-12-06T16:10:33.917Z,7.40
2018-12-06T16:13:46.399Z,7.40
2018-12-06T16:16:57.370Z,7.30
2018-12-06T16:20:11.244Z,7.40
2018-12-06T16:23:22.537Z,7.40
2018-12-06T16:26:34.065Z,7.40
2018-12-06T16:29:51.371Z,7.40
2018-12-06T16:32:59.559Z,7.30
2018-12-06T16:36:11.374Z,7.40
2018-12-06T16:39:23.997Z,7.30
2018-12-06T16:42:34.877Z,7.30
2018-12-06T16:45:46.209Z,7.30
2018-12-06T16:48:58.462Z,7.30
2018-12-06T16:52:11.337Z,7.40
2018-12-06T16:55:24.543Z,7.30
2018-12-06T16:58:36.807Z,7.30
2018-12-06T17:01:48.675Z,7.40
2018-12-06T17:05:00.324Z,7.30
2018-12-06T17:08:13.137Z,7.30
2018-12-06T17:11:26.013Z,7.30
2018-12-06T17:14:38.012Z,7.30
2018-12-06T17:17:51.078Z,7.30
2018-12-06T17:21:05.636Z,7.30
2018-12-06T17:24:18.323Z,7.40
2018-12-06T17:27:30.077Z,7.30
2018-12-06T17:30:46.045Z,7.30
2018-12-06T17:34:00.391Z,7.30
2018-12-06T17:37:13.808Z,7.30
2018-12-06T17:40:45.136Z,7.30
2018-12-06T17:43:59.209Z,7.30
2018-12-06T17:47:19.171Z,7.40
2018-12-06T18:02:28.605Z,7.50
2018-12-06T18:05:40.905Z,7.60
2018-12-06T18:08:52.777Z,7.50
2018-12-06T18:12:04.420Z,7.60
2018-12-06T18:15:18.224Z,7.60
2018-12-06T18:18:32.009Z,7.60
2018-12-06T18:21:44.828Z,7.70
2018-12-06T18:24:57.328Z,7.70
2018-12-06T18:28:08.836Z,7.70
2018-12-06T18:31:20.327Z,7.70
2018-12-06T18:50:04.807Z,7.80
2018-12-06T18:53:35.822Z,7.80
2018-12-06T18:56:47.188Z,7.80
2018-12-06T19:04:12.777Z,7.80
2018-12-06T19:07:24.425Z,7.80
2018-12-06T19:10:35.288Z,7.90
2018-12-06T19:13:53.715Z,7.90
2018-12-06T19:17:05.155Z,7.90
2018-12-06T19:20:16.948Z,7.90
2018-12-06T19:23:28.153Z,8.00
2018-12-06T19:33:39.781Z,8.00
2018-12-06T19:36:51.578Z,8.00
2018-12-06T19:40:02.848Z,8.10
2018-12-06T21:57:07.681Z,8.70
2018-12-06T22:00:21.063Z,8.60
2018-12-06T22:03:32.656Z,8.60
2018-12-06T22:06:46.818Z,8.70
2018-12-06T22:09:59.313Z,8.70
2018-12-06T22:16:53.817Z,8.70
2018-12-06T22:20:06.520Z,8.70
2018-12-06T22:23:18.222Z,8.80
2018-12-06T22:26:29.378Z,8.80
2018-12-06T22:29:41.066Z,8.80
2018-12-06T22:32:52.325Z,8.80
2018-12-06T22:36:03.661Z,8.80
2018-12-06T22:39:14.722Z,8.80
2018-12-06T22:42:26.028Z,8.80
2018-12-06T22:45:58.506Z,8.80
2018-12-06T22:49:09.730Z,8.70
2018-12-06T22:52:21.668Z,8.70
2018-12-06T22:55:32.869Z,8.80
2018-12-06T22:58:43.906Z,8.80
2018-12-06T23:01:55.888Z,8.80
2018-12-06T23:05:08.126Z,8.80
2018-12-06T23:08:20.298Z,8.80
2018-12-06T23:11:31.952Z,8.80
2018-12-06T23:14:43.469Z,8.90
2018-12-06T23:17:55.421Z,8.90
2018-12-06T23:21:07.480Z,8.90
2018-12-06T23:24:18.523Z,8.90
2018-12-06T23:27:30.755Z,8.90
2018-12-06T23:30:42.617Z,9.00
2018-12-06T23:33:54.064Z,9.00
2018-12-06T23:37:06.126Z,9.00
2018-12-06T23:40:17.467Z,9.10
2018-12-06T23:43:29.373Z,9.00
2018-12-06T23:46:41.125Z,9.10
2018-12-06T23:49:53.551Z,9.10
2018-12-06T23:53:05.016Z,9.10
2018-12-06T23:56:16.767Z,9.10
2018-12-06T23:59:28.114Z,9.10
